createdAt,value
2019-02-05T00:01:02.062Z,59.16
2019-02-05T00:03:32.426Z,58.68
2019-02-05T00:06:02.390Z,58.98
2019-02-05T00:08:32.551Z,58.66
2019-02-05T00:11:02.691Z,58.44
2019-02-05T00:13:33.009Z,58.33
2019-02-05T00:16:02.900Z,58.84
2019-02-05T00:18:32.878Z,58.98
2019-02-05T00:21:03.214Z,59.40
2019-02-05T00:23:33.558Z,59.00
2019-02-05T00:26:06.262Z,58.84
2019-02-05T00:28:35.561Z,59.00
2019-02-05T00:31:05.893Z,58.74
2019-02-05T00:33:36.004Z,58.43
2019-02-05T00:36:06.431Z,58.52
2019-02-05T00:38:36.865Z,58.94
2019-02-05T00:41:06.975Z,58.40
2019-02-05T00:43:36.865Z,59.01
2019-02-05T00:46:06.830Z,58.64
2019-02-05T00:48:36.745Z,59.21
2019-02-05T00:51:07.006Z,59.13
2019-02-05T00:53:36.896Z,58.82
2019-02-05T00:56:17.347Z,58.96
2019-02-05T00:58:39.250Z,60.77
2019-02-05T01:01:09.286Z,60.32
2019-02-05T01:03:39.274Z,59.39
2019-02-05T01:06:09.667Z,58.94
2019-02-05T01:08:40.081Z,58.27
2019-02-05T01:11:10.109Z,58.53
2019-02-05T01:13:40.104Z,58.23
2019-02-05T01:16:10.937Z,57.95
2019-02-05T01:18:41.567Z,58.34
2019-02-05T01:21:11.640Z,57.75
2019-02-05T01:23:41.581Z,57.64
2019-02-05T01:26:11.758Z,57.81
2019-02-05T01:28:41.737Z,58.71
2019-02-05T01:31:11.767Z,57.66
2019-02-05T01:33:41.652Z,57.67
2019-02-05T01:36:11.999Z,58.17
2019-02-05T01:38:42.216Z,57.68
2019-02-05T01:41:12.209Z,58.25
2019-02-05T01:43:42.510Z,58.87
2019-02-05T01:46:12.872Z,57.36
2019-02-05T01:48:42.797Z,57.92
2019-02-05T01:51:12.705Z,57.03
2019-02-05T01:53:42.667Z,57.75
2019-02-05T01:56:12.599Z,57.50
2019-02-05T01:58:42.500Z,56.82
2019-02-05T02:01:13.048Z,56.60
2019-02-05T02:03:43.505Z,57.06
2019-02-05T02:06:13.506Z,57.20
2019-02-05T02:08:43.712Z,56.84
2019-02-05T02:11:14.033Z,56.58
2019-02-05T02:13:44.719Z,56.10
2019-02-05T02:16:14.891Z,56.36
2019-02-05T02:18:44.895Z,56.06
2019-02-05T02:21:14.904Z,56.00
2019-02-05T02:23:44.922Z,59.03
2019-02-05T02:26:14.848Z,57.06
2019-02-05T02:28:45.217Z,56.10
2019-02-05T02:31:15.159Z,56.14
2019-02-05T02:33:45.454Z,56.33
2019-02-05T02:36:15.903Z,56.76
2019-02-05T02:38:45.826Z,56.17
2019-02-05T02:41:15.947Z,55.78
2019-02-05T02:43:45.878Z,55.71
2019-02-05T02:46:15.865Z,56.02
2019-02-05T02:48:45.836Z,55.79
2019-02-05T02:51:15.846Z,55.30
2019-02-05T02:53:45.956Z,55.33
2019-02-05T02:56:16.464Z,55.73
2019-02-05T02:58:46.383Z,55.57
2019-02-05T03:01:16.338Z,56.02
2019-02-05T03:03:46.466Z,55.56
2019-02-05T03:06:16.454Z,55.25
2019-02-05T03:08:46.456Z,55.24
2019-02-05T03:11:16.703Z,55.66
2019-02-05T03:13:46.708Z,55.41
2019-02-05T03:16:16.698Z,55.73
2019-02-05T03:18:46.955Z,56.00
2019-02-05T03:21:16.939Z,55.87
2019-02-05T03:23:46.854Z,56.29
2019-02-05T03:26:16.832Z,55.73
2019-02-05T03:28:47.103Z,55.44
2019-02-05T03:31:17.340Z,56.28
2019-02-05T03:33:47.488Z,56.40
2019-02-05T03:36:17.476Z,55.63
2019-02-05T03:38:47.619Z,56.70
2019-02-05T03:41:17.756Z,55.31
2019-02-05T03:43:47.963Z,55.12
2019-02-05T03:46:18.941Z,55.52
2019-02-05T03:48:50.667Z,55.05
2019-02-05T03:51:50.673Z,55.28
2019-02-05T03:54:40.991Z,55.43
2019-02-05T03:57:38.119Z,55.15
2019-02-05T04:00:42.129Z,55.43
2019-02-05T04:04:13.693Z,55.62
2019-02-05T04:07:47.281Z,55.24
2019-02-05T04:11:04.908Z,54.98
2019-02-05T04:14:28.179Z,54.95
2019-02-05T04:17:40.225Z,55.41
2019-02-05T04:21:03.985Z,54.98
2019-02-05T04:24:32.456Z,55.95
2019-02-05T04:27:28.715Z,55.06
2019-02-05T04:31:07.924Z,56.28
2019-02-05T04:34:38.437Z,57.22
2019-02-05T04:37:32.187Z,57.60
2019-02-05T04:40:55.392Z,57.66
2019-02-05T04:44:01.724Z,58.72
2019-02-05T04:47:16.389Z,61.86
2019-02-05T04:50:15.709Z,62.64
2019-02-05T04:53:12.299Z,63.03
2019-02-05T04:56:02.734Z,63.73
2019-02-05T04:59:08.197Z,62.79
2019-02-05T05:02:29.935Z,62.57
2019-02-05T05:05:37.572Z,63.52
2019-02-05T05:09:02.045Z,62.46
2019-02-05T05:11:31.955Z,65.22
2019-02-05T05:14:02.008Z,62.51
2019-02-05T05:16:32.155Z,61.95
2019-02-05T05:19:02.683Z,61.28
2019-02-05T05:21:33.619Z,62.34
2019-02-05T05:24:04.902Z,61.47
2019-02-05T05:26:35.208Z,62.24
2019-02-05T05:29:05.804Z,61.65
2019-02-05T05:31:35.908Z,61.73
2019-02-05T05:34:06.906Z,63.15
2019-02-05T05:36:36.869Z,61.82
2019-02-05T05:39:09.588Z,61.58
2019-02-05T05:41:39.680Z,61.42
2019-02-05T05:44:09.821Z,60.81
2019-02-05T05:46:39.841Z,61.27
2019-02-05T05:49:10.031Z,60.19
2019-02-05T05:51:40.189Z,60.82
2019-02-05T05:54:10.340Z,60.43
2019-02-05T05:56:40.456Z,60.94
2019-02-05T05:59:10.354Z,60.73
2019-02-05T06:01:40.241Z,60.88
2019-02-05T06:04:10.278Z,60.31
2019-02-05T06:06:40.699Z,59.76
2019-02-05T06:09:10.749Z,59.23
2019-02-05T06:11:40.639Z,59.78
2019-02-05T06:14:10.603Z,59.00
2019-02-05T06:16:40.505Z,59.34
2019-02-05T06:19:10.722Z,58.86
2019-02-05T06:21:40.837Z,58.80
2019-02-05T06:24:10.754Z,58.62
2019-02-05T06:26:40.806Z,58.72
2019-02-05T06:29:10.754Z,59.76
2019-02-05T06:31:40.751Z,60.21
2019-02-05T06:34:10.657Z,59.36
2019-02-05T06:36:40.668Z,59.22
2019-02-05T06:39:11.027Z,59.05
2019-02-05T06:41:41.299Z,58.57
2019-02-05T06:44:11.255Z,58.41
2019-02-05T06:46:41.460Z,58.66
2019-02-05T06:49:12.245Z,58.48
2019-02-05T06:51:42.641Z,57.95
2019-02-05T06:54:12.566Z,58.47
2019-02-05T06:56:42.616Z,58.39
2019-02-05T06:59:12.813Z,58.47
2019-02-05T07:01:42.711Z,58.59
2019-02-05T07:04:12.704Z,58.53
2019-02-05T07:06:43.050Z,57.99
2019-02-05T07:09:13.251Z,57.86
2019-02-05T07:11:43.189Z,57.86
2019-02-05T07:14:13.231Z,58.58
2019-02-05T07:16:43.945Z,59.28
2019-02-05T07:19:13.850Z,58.96
2019-02-05T07:21:44.116Z,59.23
2019-02-05T07:24:14.187Z,58.75
2019-02-05T07:26:44.287Z,58.64
2019-02-05T07:29:14.292Z,58.40
2019-02-05T07:31:44.358Z,58.76
2019-02-05T07:34:14.575Z,58.75
2019-02-05T07:36:44.731Z,58.50
2019-02-05T07:39:14.657Z,58.69
2019-02-05T07:41:44.714Z,58.46
2019-02-05T07:44:14.598Z,58.56
2019-02-05T07:46:44.802Z,58.82
2019-02-05T07:49:14.753Z,58.88
2019-02-05T07:51:44.934Z,58.79
2019-02-05T07:54:15.242Z,59.01
2019-02-05T07:56:45.171Z,58.49
2019-02-05T07:59:15.048Z,57.91
2019-02-05T08:01:45.300Z,63.03
2019-02-05T08:04:15.162Z,59.87
2019-02-05T08:06:45.278Z,59.21
2019-02-05T08:09:15.261Z,58.06
2019-02-05T08:11:45.604Z,58.22
2019-02-05T08:14:15.666Z,60.66
2019-02-05T08:16:47.863Z,58.82
2019-02-05T08:19:17.568Z,59.89
2019-02-05T08:21:47.530Z,58.12
2019-02-05T08:24:17.420Z,58.18
2019-02-05T08:26:47.519Z,58.11
2019-02-05T08:29:21.681Z,57.96
2019-02-05T08:31:49.283Z,58.41
2019-02-05T08:34:19.257Z,59.39
2019-02-05T08:36:49.208Z,58.20
2019-02-05T08:39:19.405Z,58.57
2019-02-05T08:41:52.442Z,58.02
2019-02-05T08:44:22.455Z,58.65
2019-02-05T08:46:52.530Z,58.01
2019-02-05T08:49:22.885Z,58.08
2019-02-05T08:51:52.802Z,57.37
2019-02-05T08:54:22.671Z,57.46
2019-02-05T08:56:52.687Z,57.81
2019-02-05T08:59:22.890Z,57.56
2019-02-05T09:01:53.362Z,57.97
2019-02-05T09:04:23.782Z,57.18
2019-02-05T09:06:54.262Z,58.57
2019-02-05T09:09:24.499Z,57.48
2019-02-05T09:11:54.518Z,57.23
2019-02-05T09:14:24.865Z,58.08
2019-02-05T09:16:54.990Z,56.83
2019-02-05T09:19:25.212Z,57.19
2019-02-05T09:21:55.276Z,56.91
2019-02-05T09:24:25.622Z,56.00
2019-02-05T09:26:55.813Z,55.63
2019-02-05T09:29:33.240Z,56.19
2019-02-05T09:31:58.845Z,58.06
2019-02-05T09:34:28.981Z,57.59
2019-02-05T09:36:59.497Z,57.18
2019-02-05T09:39:29.639Z,56.34
2019-02-05T09:42:01.153Z,56.61
2019-02-05T09:44:31.957Z,56.35
2019-02-05T09:47:02.213Z,57.77
2019-02-05T09:49:32.301Z,57.02
2019-02-05T09:52:02.492Z,57.09
2019-02-05T09:54:33.007Z,57.87
2019-02-05T09:57:03.593Z,57.82
2019-02-05T09:59:44.943Z,56.92
2019-02-05T10:02:06.322Z,57.66
2019-02-05T10:04:36.200Z,57.57
2019-02-05T10:07:06.527Z,58.62
2019-02-05T10:09:36.781Z,56.75
2019-02-05T10:12:08.304Z,56.46
2019-02-05T10:14:38.268Z,57.60
2019-02-05T10:17:08.324Z,57.06
2019-02-05T10:19:38.275Z,56.94
2019-02-05T10:22:08.312Z,57.51
2019-02-05T10:24:38.225Z,57.48
2019-02-05T10:27:08.236Z,57.54
2019-02-05T10:29:38.639Z,59.18
2019-02-05T10:32:08.870Z,59.24
2019-02-05T10:34:39.119Z,57.97
2019-02-05T10:37:09.437Z,57.32
2019-02-05T10:39:39.476Z,57.91
2019-02-05T10:42:09.629Z,59.21
2019-02-05T10:44:40.103Z,58.75
2019-02-05T10:47:10.629Z,57.30
2019-02-05T10:49:40.608Z,57.69
2019-02-05T10:52:10.667Z,57.42
2019-02-05T10:54:41.068Z,57.81
2019-02-05T10:57:28.147Z,58.48
2019-02-05T11:00:08.494Z,57.92
2019-02-05T11:02:29.974Z,57.78
2019-02-05T11:04:59.863Z,57.78
2019-02-05T11:07:29.822Z,57.96
2019-02-05T11:09:59.817Z,58.17
2019-02-05T11:12:29.960Z,57.85
2019-02-05T11:14:59.928Z,57.95
2019-02-05T11:17:30.216Z,58.58
2019-02-05T11:20:00.203Z,58.31
2019-02-05T11:22:30.625Z,58.29
2019-02-05T11:25:00.664Z,58.30
2019-02-05T11:27:31.705Z,58.13
2019-02-05T11:30:01.646Z,58.91
2019-02-05T11:32:31.717Z,59.51
2019-02-05T11:35:01.693Z,62.43
2019-02-05T11:37:31.687Z,58.95
2019-02-05T11:40:01.722Z,58.59
2019-02-05T11:42:31.984Z,58.59
2019-02-05T11:45:01.900Z,58.40
2019-02-05T11:47:32.023Z,60.90
2019-02-05T11:50:02.290Z,61.22
2019-02-05T11:52:32.296Z,59.20
2019-02-05T11:55:02.467Z,58.99
2019-02-05T11:57:32.967Z,60.17
2019-02-05T12:00:02.852Z,60.83
2019-02-05T12:02:32.958Z,61.96
2019-02-05T12:05:02.957Z,59.95
2019-02-05T12:07:32.889Z,61.41
2019-02-05T12:10:02.892Z,60.55
2019-02-05T12:12:33.229Z,60.27
2019-02-05T12:15:03.137Z,61.38
2019-02-05T12:17:33.073Z,62.30
2019-02-05T12:20:03.067Z,61.78
2019-02-05T12:22:33.043Z,60.14
2019-02-05T12:25:04.468Z,59.86
2019-02-05T12:27:34.629Z,59.76
2019-02-05T12:30:10.232Z,59.17
2019-02-05T12:32:40.349Z,59.01
2019-02-05T12:35:10.674Z,58.71
2019-02-05T12:37:40.926Z,58.76
2019-02-05T12:40:12.642Z,58.83
2019-02-05T12:42:43.072Z,58.65
2019-02-05T12:45:17.422Z,60.13
2019-02-05T12:47:47.498Z,58.92
2019-02-05T12:50:20.908Z,60.95
2019-02-05T12:52:51.281Z,59.24
2019-02-05T12:55:21.724Z,58.85
2019-02-05T12:57:51.811Z,58.97
2019-02-05T13:00:43.648Z,60.49
2019-02-05T13:03:14.123Z,60.77
2019-02-05T13:05:45.372Z,60.10
2019-02-05T13:08:15.543Z,63.07
2019-02-05T13:10:48.924Z,62.41
2019-02-05T13:13:19.392Z,59.79
2019-02-05T13:15:49.590Z,59.61
2019-02-05T13:18:19.557Z,60.90
2019-02-05T13:20:49.806Z,60.88
2019-02-05T13:23:20.052Z,59.74
2019-02-05T13:25:49.994Z,60.35
2019-02-05T13:28:19.988Z,59.92
2019-02-05T13:30:50.129Z,59.59
2019-02-05T13:33:20.246Z,60.19
2019-02-05T13:35:50.488Z,60.39
2019-02-05T13:38:20.450Z,60.27
2019-02-05T13:40:50.427Z,60.52
2019-02-05T13:43:20.374Z,60.51
2019-02-05T13:45:50.650Z,60.21
2019-02-05T13:48:20.683Z,61.05
2019-02-05T13:50:50.742Z,60.51
2019-02-05T13:53:20.866Z,60.64
2019-02-05T13:55:50.923Z,61.06
2019-02-05T13:58:21.241Z,60.34
2019-02-05T14:00:54.588Z,60.42
2019-02-05T14:03:24.846Z,63.60
2019-02-05T14:05:54.738Z,60.94
2019-02-05T14:08:24.921Z,64.86
2019-02-05T14:10:55.144Z,67.44
2019-02-05T14:13:25.033Z,60.93
2019-02-05T14:15:55.349Z,60.85
2019-02-05T14:18:25.835Z,60.75
2019-02-05T14:20:55.731Z,61.78
2019-02-05T14:23:25.756Z,61.58
2019-02-05T14:25:56.273Z,60.93
2019-02-05T14:28:27.581Z,61.29
2019-02-05T14:31:04.743Z,60.42
2019-02-05T14:33:35.278Z,61.56
2019-02-05T14:36:05.769Z,61.03
2019-02-05T14:38:35.756Z,60.92
2019-02-05T14:41:07.288Z,60.52
2019-02-05T14:43:37.558Z,61.15
2019-02-05T14:46:07.879Z,60.55
2019-02-05T14:48:38.111Z,60.28
2019-02-05T14:51:08.106Z,60.13
2019-02-05T14:53:38.062Z,60.66
2019-02-05T14:56:08.056Z,60.76
2019-02-05T14:58:38.053Z,61.33
2019-02-05T15:01:08.425Z,60.71
2019-02-05T15:03:38.502Z,64.26
2019-02-05T15:06:08.615Z,63.07
2019-02-05T15:08:38.902Z,61.45
2019-02-05T15:11:08.881Z,61.48
2019-02-05T15:13:38.881Z,62.10
2019-02-05T15:16:08.829Z,60.81
2019-02-05T15:18:38.757Z,61.24
2019-02-05T15:21:08.985Z,62.27
2019-02-05T15:23:39.363Z,64.52
2019-02-05T15:26:09.349Z,61.03
2019-02-05T15:28:39.290Z,61.00
2019-02-05T15:31:09.307Z,61.76
2019-02-05T15:33:47.040Z,61.21
2019-02-05T15:36:34.135Z,61.32
2019-02-05T15:39:05.670Z,61.50
2019-02-05T15:41:35.670Z,61.06
2019-02-05T15:44:05.800Z,61.41
2019-02-05T15:46:36.139Z,61.63
2019-02-05T15:49:06.684Z,61.32
2019-02-05T15:51:36.692Z,61.40
2019-02-05T15:54:07.049Z,63.46
2019-02-05T15:56:37.353Z,62.02
2019-02-05T15:59:07.607Z,61.36
2019-02-05T16:01:37.871Z,67.58
2019-02-05T16:04:08.141Z,61.82
2019-02-05T16:06:38.058Z,61.13
2019-02-05T16:09:10.431Z,61.72
2019-02-05T16:11:40.367Z,61.54
2019-02-05T16:14:10.846Z,61.41
2019-02-05T16:16:40.778Z,61.88
2019-02-05T16:19:10.727Z,61.73
2019-02-05T16:21:41.149Z,62.08
2019-02-05T16:24:11.396Z,61.72
2019-02-05T16:26:41.360Z,61.40
2019-02-05T16:29:11.311Z,61.83
2019-02-05T16:31:41.206Z,61.62
2019-02-05T16:34:11.431Z,61.55
2019-02-05T16:36:41.354Z,61.67
2019-02-05T16:39:12.264Z,61.87
2019-02-05T16:41:42.180Z,61.82
2019-02-05T16:44:12.237Z,62.44
2019-02-05T16:46:42.188Z,62.91
2019-02-05T16:49:12.114Z,63.64
2019-02-05T16:51:42.109Z,63.14
2019-02-05T16:54:12.079Z,62.43
2019-02-05T16:56:42.213Z,63.45
2019-02-05T16:59:12.167Z,62.64
2019-02-05T17:01:42.231Z,62.41
2019-02-05T17:04:12.195Z,61.72
2019-02-05T17:06:42.142Z,61.97
2019-02-05T17:09:18.437Z,61.69
2019-02-05T17:11:48.850Z,61.73
2019-02-05T17:14:18.859Z,62.34
2019-02-05T17:16:48.796Z,61.64
2019-02-05T17:19:18.721Z,61.64
2019-02-05T17:21:48.784Z,61.72
2019-02-05T17:24:19.535Z,62.74
2019-02-05T17:26:49.911Z,61.57
2019-02-05T17:29:19.839Z,62.11
2019-02-05T17:31:49.851Z,61.79
2019-02-05T17:34:19.851Z,62.45
2019-02-05T17:36:50.157Z,61.27
2019-02-05T17:39:20.203Z,62.44
2019-02-05T17:41:50.305Z,62.08
2019-02-05T17:44:20.717Z,61.40
2019-02-05T17:46:50.826Z,62.06
2019-02-05T17:49:20.875Z,61.86
2019-02-05T17:51:51.138Z,61.23
2019-02-05T17:54:21.313Z,60.64
2019-02-05T17:56:51.575Z,60.63
2019-02-05T17:59:21.526Z,60.44
2019-02-05T18:01:51.523Z,60.19
2019-02-05T18:04:21.568Z,61.07
2019-02-05T18:06:51.794Z,60.34
2019-02-05T18:09:22.025Z,60.42
2019-02-05T18:11:52.051Z,60.87
2019-02-05T18:14:22.010Z,60.45
2019-02-05T18:16:52.266Z,60.46
2019-02-05T18:19:22.567Z,61.12
2019-02-05T18:21:52.682Z,60.97
2019-02-05T18:24:22.668Z,61.03
2019-02-05T18:26:52.598Z,64.54
2019-02-05T18:29:22.554Z,64.21
2019-02-05T18:31:52.981Z,62.29
2019-02-05T18:34:23.290Z,61.77
2019-02-05T18:36:53.327Z,61.08
2019-02-05T18:39:23.306Z,63.44
2019-02-05T18:41:53.266Z,61.89
2019-02-05T18:44:26.726Z,62.33
2019-02-05T18:46:56.833Z,61.98
2019-02-05T18:49:26.801Z,61.55
2019-02-05T18:51:56.873Z,63.51
2019-02-05T18:54:26.871Z,61.55
2019-02-05T18:56:58.685Z,62.73
2019-02-05T18:59:29.349Z,61.57
2019-02-05T19:02:01.004Z,62.46
2019-02-05T19:04:31.012Z,61.25
2019-02-05T19:07:03.747Z,61.36
2019-02-05T19:09:34.500Z,60.72
2019-02-05T19:12:05.135Z,63.31
2019-02-05T19:14:35.584Z,61.88
2019-02-05T19:17:05.858Z,61.67
2019-02-05T19:19:35.895Z,60.96
2019-02-05T19:22:06.671Z,61.57
2019-02-05T19:25:07.472Z,61.15
2019-02-05T19:27:38.078Z,62.14
2019-02-05T19:30:11.144Z,62.03
2019-02-05T19:32:41.899Z,61.31
2019-02-05T19:35:12.748Z,61.24
2019-02-05T19:37:42.853Z,64.17
2019-02-05T19:40:13.135Z,63.29
2019-02-05T19:42:43.443Z,61.48
2019-02-05T19:45:33.493Z,60.25
2019-02-05T19:48:04.430Z,60.68
2019-02-05T19:50:34.425Z,63.40
2019-02-05T19:53:04.499Z,63.90
2019-02-05T19:55:34.379Z,63.78
2019-02-05T19:58:05.896Z,61.48
2019-02-05T20:00:35.852Z,61.06
2019-02-05T20:03:06.978Z,62.05
2019-02-05T20:05:37.373Z,60.51
2019-02-05T20:08:07.457Z,59.79
2019-02-05T20:10:37.610Z,59.73
2019-02-05T20:13:10.847Z,61.62
2019-02-05T20:15:39.882Z,60.29
2019-02-05T20:18:10.080Z,60.09
2019-02-05T20:20:40.009Z,59.40
2019-02-05T20:23:09.952Z,59.10
2019-02-05T20:25:39.843Z,59.12
2019-02-05T20:28:09.739Z,60.45
2019-02-05T20:30:39.646Z,59.85
2019-02-05T20:33:09.864Z,60.09
2019-02-05T20:35:39.748Z,60.02
2019-02-05T20:38:09.762Z,63.83
2019-02-05T20:40:39.740Z,62.16
2019-02-05T20:43:09.739Z,60.80
2019-02-05T20:45:39.700Z,59.76
2019-02-05T20:48:09.954Z,60.83
2019-02-05T20:50:40.245Z,62.05
2019-02-05T20:53:13.989Z,60.39
2019-02-05T20:55:41.828Z,59.36
2019-02-05T20:58:11.829Z,60.17
2019-02-05T21:00:41.743Z,59.83
2019-02-05T21:03:11.984Z,60.58
2019-02-05T21:05:42.161Z,59.66
2019-02-05T21:08:12.069Z,60.48
2019-02-05T21:10:42.285Z,59.02
2019-02-05T21:13:12.173Z,59.49
2019-02-05T21:15:42.446Z,59.49
2019-02-05T21:18:12.327Z,60.29
2019-02-05T21:20:42.601Z,61.71
2019-02-05T21:23:12.624Z,60.15
2019-02-05T21:25:42.557Z,59.95
2019-02-05T21:28:12.648Z,63.04
2019-02-05T21:30:42.562Z,61.86
2019-02-05T21:33:12.779Z,61.37
2019-02-05T21:35:43.135Z,61.06
2019-02-05T21:38:13.387Z,59.97
2019-02-05T21:40:43.434Z,59.24
2019-02-05T21:43:16.390Z,59.38
2019-02-05T21:45:46.417Z,59.05
2019-02-05T21:48:16.365Z,59.21
2019-02-05T21:50:46.281Z,59.80
2019-02-05T21:53:16.239Z,59.53
2019-02-05T21:55:46.253Z,61.89
2019-02-05T21:58:16.254Z,60.92
2019-02-05T22:00:46.310Z,60.09
2019-02-05T22:03:16.504Z,61.46
2019-02-05T22:05:47.056Z,59.91
2019-02-05T22:08:17.138Z,61.15
2019-02-05T22:10:47.068Z,62.14
2019-02-05T22:13:17.160Z,60.13
2019-02-05T22:15:47.090Z,59.90
2019-02-05T22:18:17.006Z,60.11
2019-02-05T22:20:46.993Z,60.09
2019-02-05T22:23:17.199Z,59.74
2019-02-05T22:25:47.431Z,63.84
2019-02-05T22:28:20.462Z,61.04
2019-02-05T22:30:48.993Z,60.20
2019-02-05T22:33:18.901Z,60.47
2019-02-05T22:35:49.129Z,59.68
2019-02-05T22:38:19.120Z,59.63
2019-02-05T22:40:49.298Z,60.50
2019-02-05T22:43:19.511Z,62.81
2019-02-05T22:45:49.459Z,61.09
2019-02-05T22:48:19.651Z,61.01
2019-02-05T22:50:49.611Z,61.27
2019-02-05T22:53:19.748Z,62.54
2019-02-05T22:55:49.941Z,61.77
2019-02-05T22:58:19.827Z,61.19
2019-02-05T23:01:34.881Z,62.71
2019-02-05T23:04:50.849Z,60.72
2019-02-05T23:07:22.421Z,60.56
2019-02-05T23:10:13.488Z,60.27
2019-02-05T23:13:09.284Z,60.41
2019-02-05T23:15:43.394Z,59.50
2019-02-05T23:18:13.983Z,59.67
2019-02-05T23:20:45.728Z,59.31
2019-02-05T23:23:20.316Z,59.76
2019-02-05T23:25:50.277Z,61.16
2019-02-05T23:28:20.572Z,60.16
2019-02-05T23:30:51.078Z,61.01
2019-02-05T23:33:21.013Z,60.47
2019-02-05T23:35:50.937Z,60.03
2019-02-05T23:38:20.871Z,60.30
2019-02-05T23:40:50.847Z,60.29
2019-02-05T23:43:21.829Z,60.97
2019-02-05T23:46:01.515Z,62.17
2019-02-05T23:48:23.893Z,60.05
2019-02-05T23:50:53.943Z,59.76
2019-02-05T23:53:23.886Z,59.60
2019-02-05T23:55:53.819Z,59.68
2019-02-05T23:58:23.756Z,59.62
